sensor_id;sensor_type;location;lat;lon;timestamp;P1;durP1;ratioP1;P2;durP2;ratioP2
14118;SDS011;7138;49.246;9.100;2023-12-20T00:01:26;7.70;;;5.05;;
14118;SDS011;7138;49.246;9.100;2023-12-20T00:03:52;8.02;;;5.38;;
14118;SDS011;7138;49.246;9.100;2023-12-20T00:06:18;7.53;;;4.60;;
14118;SDS011;7138;49.246;9.100;2023-12-20T00:08:44;7.95;;;4.60;;
14118;SDS011;7138;49.246;9.100;2023-12-20T00:11:11;7.70;;;5.00;;
14118;SDS011;7138;49.246;9.100;2023-12-20T00:13:37;7.75;;;4.63;;
14118;SDS011;7138;49.246;9.100;2023-12-20T00:16:03;7.05;;;4.53;;
14118;SDS011;7138;49.246;9.100;2023-12-20T00:18:29;6.90;;;4.68;;
14118;SDS011;7138;49.246;9.100;2023-12-20T00:20:55;8.55;;;5.10;;
14118;SDS011;7138;49.246;9.100;2023-12-20T00:23:20;7.25;;;4.68;;
14118;SDS011;7138;49.246;9.100;2023-12-20T00:25:48;7.80;;;4.63;;
14118;SDS011;7138;49.246;9.100;2023-12-20T00:28:15;7.68;;;4.88;;
14118;SDS011;7138;49.246;9.100;2023-12-20T00:30:41;8.48;;;5.10;;
14118;SDS011;7138;49.246;9.100;2023-12-20T00:33:07;8.18;;;5.10;;
14118;SDS011;7138;49.246;9.100;2023-12-20T00:35:33;7.63;;;4.93;;
14118;SDS011;7138;49.246;9.100;2023-12-20T00:37:58;8.43;;;5.40;;
14118;SDS011;7138;49.246;9.100;2023-12-20T00:40:24;8.38;;;5.07;;
14118;SDS011;7138;49.246;9.100;2023-12-20T00:42:50;8.00;;;5.03;;
14118;SDS011;7138;49.246;9.100;2023-12-20T00:45:18;8.15;;;4.80;;
14118;SDS011;7138;49.246;9.100;2023-12-20T00:47:43;8.57;;;5.22;;
14118;SDS011;7138;49.246;9.100;2023-12-20T00:50:10;7.80;;;4.93;;
14118;SDS011;7138;49.246;9.100;2023-12-20T00:52:35;9.25;;;5.43;;
14118;SDS011;7138;49.246;9.100;2023-12-20T00:55:01;8.13;;;4.75;;
14118;SDS011;7138;49.246;9.100;2023-12-20T00:57:28;7.65;;;4.85;;
14118;SDS011;7138;49.246;9.100;2023-12-20T00:59:54;7.38;;;4.93;;
14118;SDS011;7138;49.246;9.100;2023-12-20T01:02:21;9.95;;;4.88;;
14118;SDS011;7138;49.246;9.100;2023-12-20T01:04:47;7.45;;;4.85;;
14118;SDS011;7138;49.246;9.100;2023-12-20T01:07:13;8.77;;;5.03;;
14118;SDS011;7138;49.246;9.100;2023-12-20T01:09:39;6.70;;;4.40;;
14118;SDS011;7138;49.246;9.100;2023-12-20T01:12:05;7.20;;;4.55;;
14118;SDS011;7138;49.246;9.100;2023-12-20T01:14:31;7.80;;;5.10;;
14118;SDS011;7138;49.246;9.100;2023-12-20T01:16:57;7.00;;;4.47;;
14118;SDS011;7138;49.246;9.100;2023-12-20T01:19:24;6.82;;;4.35;;
14118;SDS011;7138;49.246;9.100;2023-12-20T01:21:50;7.30;;;4.68;;
14118;SDS011;7138;49.246;9.100;2023-12-20T01:24:16;6.53;;;4.18;;
14118;SDS011;7138;49.246;9.100;2023-12-20T01:26:41;7.80;;;4.80;;
14118;SDS011;7138;49.246;9.100;2023-12-20T01:29:07;5.65;;;3.58;;
14118;SDS011;7138;49.246;9.100;2023-12-20T01:31:33;6.35;;;4.10;;
14118;SDS011;7138;49.246;9.100;2023-12-20T01:33:59;6.55;;;4.03;;
14118;SDS011;7138;49.246;9.100;2023-12-20T01:36:26;6.28;;;3.50;;
14118;SDS011;7138;49.246;9.100;2023-12-20T01:38:52;5.95;;;3.65;;
14118;SDS011;7138;49.246;9.100;2023-12-20T01:41:17;5.50;;;3.42;;
14118;SDS011;7138;49.246;9.100;2023-12-20T01:43:43;6.32;;;3.40;;
14118;SDS011;7138;49.246;9.100;2023-12-20T01:46:09;5.60;;;3.30;;
14118;SDS011;7138;49.246;9.100;2023-12-20T01:48:37;5.65;;;3.20;;
14118;SDS011;7138;49.246;9.100;2023-12-20T01:51:03;4.70;;;2.70;;
14118;SDS011;7138;49.246;9.100;2023-12-20T01:53:31;5.00;;;2.70;;
14118;SDS011;7138;49.246;9.100;2023-12-20T01:55:57;5.00;;;2.55;;
14118;SDS011;7138;49.246;9.100;2023-12-20T01:58:24;5.53;;;2.72;;
14118;SDS011;7138;49.246;9.100;2023-12-20T02:00:51;6.72;;;2.80;;
14118;SDS011;7138;49.246;9.100;2023-12-20T02:03:18;4.63;;;2.72;;
14118;SDS011;7138;49.246;9.100;2023-12-20T02:05:44;4.78;;;2.67;;
14118;SDS011;7138;49.246;9.100;2023-12-20T02:08:12;5.32;;;2.90;;
14118;SDS011;7138;49.246;9.100;2023-12-20T02:10:40;4.13;;;2.38;;
14118;SDS011;7138;49.246;9.100;2023-12-20T02:13:06;4.55;;;2.33;;
14118;SDS011;7138;49.246;9.100;2023-12-20T02:15:32;4.10;;;2.45;;
14118;SDS011;7138;49.246;9.100;2023-12-20T02:17:58;4.18;;;2.38;;
14118;SDS011;7138;49.246;9.100;2023-12-20T02:20:24;5.20;;;2.33;;
14118;SDS011;7138;49.246;9.100;2023-12-20T02:22:51;3.42;;;2.08;;
14118;SDS011;7138;49.246;9.100;2023-12-20T02:25:17;3.85;;;2.17;;
14118;SDS011;7138;49.246;9.100;2023-12-20T02:27:43;3.75;;;2.00;;
14118;SDS011;7138;49.246;9.100;2023-12-20T02:30:09;4.43;;;2.00;;
14118;SDS011;7138;49.246;9.100;2023-12-20T02:32:35;3.58;;;1.90;;
14118;SDS011;7138;49.246;9.100;2023-12-20T02:35:01;4.10;;;2.00;;
14118;SDS011;7138;49.246;9.100;2023-12-20T02:37:27;3.40;;;1.90;;
14118;SDS011;7138;49.246;9.100;2023-12-20T02:39:54;3.45;;;1.83;;
14118;SDS011;7138;49.246;9.100;2023-12-20T02:42:20;4.28;;;2.15;;
14118;SDS011;7138;49.246;9.100;2023-12-20T02:44:46;4.20;;;2.15;;
14118;SDS011;7138;49.246;9.100;2023-12-20T02:47:12;3.55;;;1.90;;
14118;SDS011;7138;49.246;9.100;2023-12-20T02:49:37;4.15;;;2.30;;
14118;SDS011;7138;49.246;9.100;2023-12-20T02:52:03;3.50;;;1.92;;
14118;SDS011;7138;49.246;9.100;2023-12-20T02:54:30;4.80;;;2.08;;
14118;SDS011;7138;49.246;9.100;2023-12-20T02:56:57;3.90;;;2.17;;
14118;SDS011;7138;49.246;9.100;2023-12-20T02:59:23;3.92;;;2.10;;
14118;SDS011;7138;49.246;9.100;2023-12-20T03:01:48;3.67;;;1.80;;
14118;SDS011;7138;49.246;9.100;2023-12-20T03:04:14;5.25;;;2.67;;
14118;SDS011;7138;49.246;9.100;2023-12-20T03:06:40;4.07;;;2.08;;
14118;SDS011;7138;49.246;9.100;2023-12-20T03:09:06;4.07;;;2.20;;
14118;SDS011;7138;49.246;9.100;2023-12-20T03:11:32;4.25;;;2.00;;
14118;SDS011;7138;49.246;9.100;2023-12-20T03:13:59;3.63;;;2.15;;
14118;SDS011;7138;49.246;9.100;2023-12-20T03:16:25;4.25;;;2.38;;
14118;SDS011;7138;49.246;9.100;2023-12-20T03:18:51;3.60;;;2.10;;
14118;SDS011;7138;49.246;9.100;2023-12-20T03:21:17;3.83;;;2.03;;
14118;SDS011;7138;49.246;9.100;2023-12-20T03:23:43;3.75;;;2.08;;
14118;SDS011;7138;49.246;9.100;2023-12-20T03:26:09;4.25;;;2.10;;
14118;SDS011;7138;49.246;9.100;2023-12-20T03:28:35;4.10;;;2.20;;
14118;SDS011;7138;49.246;9.100;2023-12-20T03:31:03;4.07;;;1.92;;
14118;SDS011;7138;49.246;9.100;2023-12-20T03:33:29;4.00;;;2.10;;
14118;SDS011;7138;49.246;9.100;2023-12-20T03:35:55;3.70;;;1.90;;
14118;SDS011;7138;49.246;9.100;2023-12-20T03:38:21;3.38;;;1.95;;
14118;SDS011;7138;49.246;9.100;2023-12-20T03:40:48;4.70;;;2.20;;
14118;SDS011;7138;49.246;9.100;2023-12-20T03:43:14;4.72;;;2.30;;
14118;SDS011;7138;49.246;9.100;2023-12-20T03:45:41;4.95;;;2.30;;
14118;SDS011;7138;49.246;9.100;2023-12-20T03:48:08;3.53;;;2.10;;
14118;SDS011;7138;49.246;9.100;2023-12-20T03:50:34;3.63;;;1.90;;
14118;SDS011;7138;49.246;9.100;2023-12-20T03:53:00;3.65;;;1.83;;
14118;SDS011;7138;49.246;9.100;2023-12-20T03:55:26;4.07;;;2.10;;
14118;SDS011;7138;49.246;9.100;2023-12-20T03:57:52;3.42;;;1.98;;
14118;SDS011;7138;49.246;9.100;2023-12-20T04:00:18;3.63;;;1.92;;
14118;SDS011;7138;49.246;9.100;2023-12-20T04:02:44;3.70;;;2.00;;
14118;SDS011;7138;49.246;9.100;2023-12-20T04:05:11;3.30;;;1.90;;
14118;SDS011;7138;49.246;9.100;2023-12-20T04:07:37;4.18;;;2.22;;
14118;SDS011;7138;49.246;9.100;2023-12-20T04:10:04;4.15;;;2.00;;
14118;SDS011;7138;49.246;9.100;2023-12-20T04:12:31;4.28;;;1.98;;
14118;SDS011;7138;49.246;9.100;2023-12-20T04:14:57;3.60;;;2.00;;
14118;SDS011;7138;49.246;9.100;2023-12-20T04:17:23;4.88;;;2.38;;
14118;SDS011;7138;49.246;9.100;2023-12-20T04:19:49;3.75;;;1.85;;
14118;SDS011;7138;49.246;9.100;2023-12-20T04:22:17;3.78;;;2.25;;
14118;SDS011;7138;49.246;9.100;2023-12-20T04:24:44;6.43;;;2.65;;
14118;SDS011;7138;49.246;9.100;2023-12-20T04:27:10;4.25;;;2.20;;
14118;SDS011;7138;49.246;9.100;2023-12-20T04:29:36;3.40;;;1.90;;
14118;SDS011;7138;49.246;9.100;2023-12-20T04:32:02;3.85;;;2.17;;
14118;SDS011;7138;49.246;9.100;2023-12-20T04:34:29;4.28;;;2.33;;
14118;SDS011;7138;49.246;9.100;2023-12-20T04:36:55;4.85;;;2.42;;
14118;SDS011;7138;49.246;9.100;2023-12-20T04:39:22;4.22;;;2.50;;
14118;SDS011;7138;49.246;9.100;2023-12-20T04:41:48;4.05;;;2.38;;
14118;SDS011;7138;49.246;9.100;2023-12-20T04:44:15;4.35;;;2.53;;
14118;SDS011;7138;49.246;9.100;2023-12-20T04:46:41;4.20;;;2.75;;
14118;SDS011;7138;49.246;9.100;2023-12-20T04:49:06;4.05;;;2.40;;
14118;SDS011;7138;49.246;9.100;2023-12-20T04:51:32;5.13;;;3.05;;
14118;SDS011;7138;49.246;9.100;2023-12-20T04:53:58;6.15;;;2.97;;
14118;SDS011;7138;49.246;9.100;2023-12-20T04:56:26;4.30;;;2.55;;
14118;SDS011;7138;49.246;9.100;2023-12-20T04:58:51;4.40;;;2.58;;
14118;SDS011;7138;49.246;9.100;2023-12-20T05:01:17;6.30;;;3.03;;
14118;SDS011;7138;49.246;9.100;2023-12-20T05:03:43;4.18;;;2.60;;
14118;SDS011;7138;49.246;9.100;2023-12-20T05:06:09;5.18;;;2.95;;
14118;SDS011;7138;49.246;9.100;2023-12-20T05:08:35;5.55;;;2.80;;
14118;SDS011;7138;49.246;9.100;2023-12-20T05:11:01;4.25;;;2.55;;
14118;SDS011;7138;49.246;9.100;2023-12-20T05:13:29;4.43;;;2.97;;
14118;SDS011;7138;49.246;9.100;2023-12-20T05:15:55;4.93;;;3.00;;
14118;SDS011;7138;49.246;9.100;2023-12-20T05:18:21;4.95;;;2.92;;
14118;SDS011;7138;49.246;9.100;2023-12-20T05:20:48;5.32;;;3.17;;
14118;SDS011;7138;49.246;9.100;2023-12-20T05:23:14;4.75;;;2.63;;
14118;SDS011;7138;49.246;9.100;2023-12-20T05:25:40;3.97;;;2.47;;
14118;SDS011;7138;49.246;9.100;2023-12-20T05:28:06;4.72;;;2.95;;
14118;SDS011;7138;49.246;9.100;2023-12-20T05:30:33;5.18;;;2.70;;
14118;SDS011;7138;49.246;9.100;2023-12-20T05:32:59;3.95;;;2.45;;
14118;SDS011;7138;49.246;9.100;2023-12-20T05:35:25;4.80;;;2.75;;
14118;SDS011;7138;49.246;9.100;2023-12-20T05:37:50;3.83;;;2.35;;
14118;SDS011;7138;49.246;9.100;2023-12-20T05:40:16;3.75;;;2.15;;
14118;SDS011;7138;49.246;9.100;2023-12-20T05:42:42;6.10;;;2.72;;
14118;SDS011;7138;49.246;9.100;2023-12-20T05:45:08;4.72;;;2.45;;
14118;SDS011;7138;49.246;9.100;2023-12-20T05:47:36;4.93;;;2.60;;
14118;SDS011;7138;49.246;9.100;2023-12-20T05:50:02;4.40;;;2.70;;
14118;SDS011;7138;49.246;9.100;2023-12-20T05:52:29;3.55;;;2.22;;
14118;SDS011;7138;49.246;9.100;2023-12-20T05:54:55;4.18;;;2.42;;
14118;SDS011;7138;49.246;9.100;2023-12-20T05:57:22;4.13;;;2.72;;
14118;SDS011;7138;49.246;9.100;2023-12-20T05:59:48;3.85;;;2.25;;
14118;SDS011;7138;49.246;9.100;2023-12-20T06:02:14;6.32;;;2.92;;
14118;SDS011;7138;49.246;9.100;2023-12-20T06:04:43;4.85;;;3.13;;
14118;SDS011;7138;49.246;9.100;2023-12-20T06:07:11;4.80;;;3.13;;
14118;SDS011;7138;49.246;9.100;2023-12-20T06:09:37;4.82;;;2.80;;
14118;SDS011;7138;49.246;9.100;2023-12-20T06:12:03;4.47;;;2.60;;
14118;SDS011;7138;49.246;9.100;2023-12-20T06:14:29;4.47;;;2.70;;
14118;SDS011;7138;49.246;9.100;2023-12-20T06:16:55;5.50;;;3.03;;
14118;SDS011;7138;49.246;9.100;2023-12-20T06:19:21;4.90;;;2.90;;
14118;SDS011;7138;49.246;9.100;2023-12-20T06:21:48;4.57;;;2.58;;
14118;SDS011;7138;49.246;9.100;2023-12-20T06:24:14;4.18;;;2.67;;
14118;SDS011;7138;49.246;9.100;2023-12-20T06:26:40;5.13;;;3.10;;
14118;SDS011;7138;49.246;9.100;2023-12-20T06:29:06;5.13;;;3.10;;
14118;SDS011;7138;49.246;9.100;2023-12-20T06:31:32;5.75;;;3.08;;
14118;SDS011;7138;49.246;9.100;2023-12-20T06:33:58;4.47;;;2.80;;
14118;SDS011;7138;49.246;9.100;2023-12-20T06:36:25;5.05;;;3.20;;
14118;SDS011;7138;49.246;9.100;2023-12-20T06:38:52;5.30;;;3.72;;
14118;SDS011;7138;49.246;9.100;2023-12-20T06:41:18;6.47;;;4.03;;
14118;SDS011;7138;49.246;9.100;2023-12-20T06:43:44;5.82;;;3.35;;
14118;SDS011;7138;49.246;9.100;2023-12-20T06:46:10;5.68;;;3.80;;
14118;SDS011;7138;49.246;9.100;2023-12-20T06:48:38;5.32;;;3.03;;
14118;SDS011;7138;49.246;9.100;2023-12-20T06:51:04;5.25;;;3.10;;
14118;SDS011;7138;49.246;9.100;2023-12-20T06:53:30;5.18;;;3.42;;
14118;SDS011;7138;49.246;9.100;2023-12-20T06:55:57;6.22;;;3.30;;
14118;SDS011;7138;49.246;9.100;2023-12-20T06:58:23;4.82;;;3.30;;
14118;SDS011;7138;49.246;9.100;2023-12-20T07:00:50;8.35;;;4.18;;
14118;SDS011;7138;49.246;9.100;2023-12-20T07:03:16;6.63;;;3.85;;
14118;SDS011;7138;49.246;9.100;2023-12-20T07:05:43;5.60;;;3.95;;
14118;SDS011;7138;49.246;9.100;2023-12-20T07:08:09;5.55;;;3.45;;
14118;SDS011;7138;49.246;9.100;2023-12-20T07:10:35;6.47;;;3.40;;
14118;SDS011;7138;49.246;9.100;2023-12-20T07:13:03;5.15;;;3.55;;
14118;SDS011;7138;49.246;9.100;2023-12-20T07:15:29;5.28;;;3.53;;
14118;SDS011;7138;49.246;9.100;2023-12-20T07:17:55;5.30;;;3.40;;
14118;SDS011;7138;49.246;9.100;2023-12-20T07:20:20;5.72;;;3.35;;
14118;SDS011;7138;49.246;9.100;2023-12-20T07:22:46;4.82;;;3.20;;
14118;SDS011;7138;49.246;9.100;2023-12-20T07:25:12;5.38;;;3.20;;
14118;SDS011;7138;49.246;9.100;2023-12-20T07:27:38;6.20;;;3.22;;
14118;SDS011;7138;49.246;9.100;2023-12-20T07:30:06;6.43;;;3.58;;
14118;SDS011;7138;49.246;9.100;2023-12-20T07:32:33;6.53;;;2.58;;
14118;SDS011;7138;49.246;9.100;2023-12-20T07:34:58;5.78;;;3.70;;
14118;SDS011;7138;49.246;9.100;2023-12-20T07:37:24;5.20;;;3.35;;
14118;SDS011;7138;49.246;9.100;2023-12-20T07:39:50;6.47;;;3.75;;
14118;SDS011;7138;49.246;9.100;2023-12-20T07:42:16;5.57;;;3.28;;
14118;SDS011;7138;49.246;9.100;2023-12-20T07:44:42;6.72;;;3.65;;
14118;SDS011;7138;49.246;9.100;2023-12-20T07:47:09;5.50;;;3.60;;
14118;SDS011;7138;49.246;9.100;2023-12-20T07:49:37;5.60;;;3.38;;
14118;SDS011;7138;49.246;9.100;2023-12-20T07:52:03;6.68;;;3.17;;
14118;SDS011;7138;49.246;9.100;2023-12-20T07:54:29;6.13;;;3.13;;
14118;SDS011;7138;49.246;9.100;2023-12-20T07:56:55;4.60;;;2.50;;
14118;SDS011;7138;49.246;9.100;2023-12-20T07:59:22;5.40;;;2.38;;
14118;SDS011;7138;49.246;9.100;2023-12-20T08:01:48;7.75;;;2.97;;
14118;SDS011;7138;49.246;9.100;2023-12-20T08:04:15;5.68;;;3.30;;
14118;SDS011;7138;49.246;9.100;2023-12-20T08:06:40;4.68;;;2.80;;
14118;SDS011;7138;49.246;9.100;2023-12-20T08:09:06;5.13;;;2.90;;
14118;SDS011;7138;49.246;9.100;2023-12-20T08:11:32;6.38;;;3.10;;
14118;SDS011;7138;49.246;9.100;2023-12-20T08:13:58;5.78;;;3.35;;
14118;SDS011;7138;49.246;9.100;2023-12-20T08:16:23;6.13;;;3.83;;
14118;SDS011;7138;49.246;9.100;2023-12-20T08:18:50;6.47;;;3.67;;
14118;SDS011;7138;49.246;9.100;2023-12-20T08:21:17;6.22;;;3.90;;
14118;SDS011;7138;49.246;9.100;2023-12-20T08:23:45;5.10;;;3.70;;
14118;SDS011;7138;49.246;9.100;2023-12-20T08:26:11;5.22;;;3.63;;
14118;SDS011;7138;49.246;9.100;2023-12-20T08:28:37;5.47;;;3.80;;
14118;SDS011;7138;49.246;9.100;2023-12-20T08:31:03;5.57;;;3.63;;
14118;SDS011;7138;49.246;9.100;2023-12-20T08:33:29;6.13;;;3.83;;
14118;SDS011;7138;49.246;9.100;2023-12-20T08:35:55;7.38;;;4.20;;
14118;SDS011;7138;49.246;9.100;2023-12-20T08:38:22;7.55;;;4.13;;
14118;SDS011;7138;49.246;9.100;2023-12-20T08:40:47;7.15;;;4.47;;
14118;SDS011;7138;49.246;9.100;2023-12-20T08:43:14;7.30;;;4.38;;
14118;SDS011;7138;49.246;9.100;2023-12-20T08:45:39;10.25;;;4.47;;
14118;SDS011;7138;49.246;9.100;2023-12-20T08:48:05;6.72;;;4.07;;
14118;SDS011;7138;49.246;9.100;2023-12-20T08:50:32;6.05;;;4.20;;
14118;SDS011;7138;49.246;9.100;2023-12-20T08:52:58;7.25;;;4.03;;
14118;SDS011;7138;49.246;9.100;2023-12-20T08:55:25;6.72;;;3.88;;
14118;SDS011;7138;49.246;9.100;2023-12-20T08:57:51;5.22;;;3.92;;
14118;SDS011;7138;49.246;9.100;2023-12-20T09:00:19;5.05;;;3.45;;
14118;SDS011;7138;49.246;9.100;2023-12-20T09:02:45;5.70;;;3.50;;
14118;SDS011;7138;49.246;9.100;2023-12-20T09:05:11;8.55;;;3.40;;
14118;SDS011;7138;49.246;9.100;2023-12-20T09:07:37;6.20;;;3.55;;
14118;SDS011;7138;49.246;9.100;2023-12-20T09:10:03;6.15;;;3.30;;
14118;SDS011;7138;49.246;9.100;2023-12-20T09:12:31;5.72;;;2.92;;
14118;SDS011;7138;49.246;9.100;2023-12-20T09:14:56;7.47;;;3.22;;
14118;SDS011;7138;49.246;9.100;2023-12-20T09:17:22;6.03;;;3.00;;
14118;SDS011;7138;49.246;9.100;2023-12-20T09:19:48;4.50;;;2.33;;
14118;SDS011;7138;49.246;9.100;2023-12-20T09:22:14;3.92;;;2.65;;
14118;SDS011;7138;49.246;9.100;2023-12-20T09:24:40;5.40;;;2.80;;
14118;SDS011;7138;49.246;9.100;2023-12-20T09:27:06;6.43;;;2.45;;
14118;SDS011;7138;49.246;9.100;2023-12-20T09:29:33;4.30;;;2.38;;
14118;SDS011;7138;49.246;9.100;2023-12-20T09:31:59;5.15;;;2.47;;
14118;SDS011;7138;49.246;9.100;2023-12-20T09:34:25;4.70;;;2.60;;
14118;SDS011;7138;49.246;9.100;2023-12-20T09:36:52;5.30;;;2.40;;
14118;SDS011;7138;49.246;9.100;2023-12-20T09:39:18;6.93;;;2.30;;
14118;SDS011;7138;49.246;9.100;2023-12-20T09:41:51;4.97;;;2.30;;
14118;SDS011;7138;49.246;9.100;2023-12-20T09:44:26;6.00;;;2.53;;
14118;SDS011;7138;49.246;9.100;2023-12-20T09:46:54;5.15;;;2.38;;
14118;SDS011;7138;49.246;9.100;2023-12-20T09:49:21;4.25;;;2.28;;
14118;SDS011;7138;49.246;9.100;2023-12-20T09:51:48;5.50;;;2.38;;
14118;SDS011;7138;49.246;9.100;2023-12-20T09:54:17;6.05;;;2.13;;
14118;SDS011;7138;49.246;9.100;2023-12-20T09:56:43;6.22;;;1.98;;
14118;SDS011;7138;49.246;9.100;2023-12-20T09:59:10;6.55;;;1.90;;
14118;SDS011;7138;49.246;9.100;2023-12-20T10:01:35;7.30;;;1.95;;
14118;SDS011;7138;49.246;9.100;2023-12-20T10:04:06;5.82;;;1.88;;
14118;SDS011;7138;49.246;9.100;2023-12-20T10:06:34;6.38;;;1.92;;
14118;SDS011;7138;49.246;9.100;2023-12-20T10:09:01;7.57;;;2.00;;
14118;SDS011;7138;49.246;9.100;2023-12-20T10:11:27;4.40;;;1.55;;
14118;SDS011;7138;49.246;9.100;2023-12-20T10:13:58;5.22;;;1.80;;
14118;SDS011;7138;49.246;9.100;2023-12-20T10:16:27;7.40;;;2.30;;
14118;SDS011;7138;49.246;9.100;2023-12-20T10:18:54;8.88;;;2.22;;
14118;SDS011;7138;49.246;9.100;2023-12-20T10:21:21;5.78;;;2.10;;
14118;SDS011;7138;49.246;9.100;2023-12-20T10:23:48;3.95;;;2.03;;
14118;SDS011;7138;49.246;9.100;2023-12-20T10:26:20;6.45;;;1.83;;
14118;SDS011;7138;49.246;9.100;2023-12-20T10:28:46;6.03;;;1.77;;
14118;SDS011;7138;49.246;9.100;2023-12-20T10:31:25;3.88;;;2.10;;
14118;SDS011;7138;49.246;9.100;2023-12-20T10:33:53;6.07;;;1.80;;
14118;SDS011;7138;49.246;9.100;2023-12-20T10:36:24;5.57;;;1.75;;
14118;SDS011;7138;49.246;9.100;2023-12-20T10:38:52;7.93;;;2.17;;
14118;SDS011;7138;49.246;9.100;2023-12-20T10:41:21;5.40;;;1.98;;
14118;SDS011;7138;49.246;9.100;2023-12-20T10:43:51;9.15;;;2.17;;
14118;SDS011;7138;49.246;9.100;2023-12-20T10:46:17;5.88;;;1.70;;
14118;SDS011;7138;49.246;9.100;2023-12-20T10:48:44;9.95;;;1.67;;
14118;SDS011;7138;49.246;9.100;2023-12-20T10:51:12;6.22;;;1.80;;
14118;SDS011;7138;49.246;9.100;2023-12-20T10:53:44;5.43;;;1.60;;
14118;SDS011;7138;49.246;9.100;2023-12-20T10:56:12;6.03;;;1.67;;
14118;SDS011;7138;49.246;9.100;2023-12-20T10:58:43;4.22;;;1.55;;
14118;SDS011;7138;49.246;9.100;2023-12-20T11:01:10;6.90;;;1.42;;
14118;SDS011;7138;49.246;9.100;2023-12-20T11:03:42;7.65;;;1.80;;
14118;SDS011;7138;49.246;9.100;2023-12-20T11:06:15;7.30;;;1.65;;
14118;SDS011;7138;49.246;9.100;2023-12-20T11:08:58;6.18;;;1.50;;
14118;SDS011;7138;49.246;9.100;2023-12-20T11:11:39;5.47;;;1.40;;
14118;SDS011;7138;49.246;9.100;2023-12-20T11:14:23;5.85;;;1.45;;
14118;SDS011;7138;49.246;9.100;2023-12-20T11:17:06;7.38;;;1.73;;
14118;SDS011;7138;49.246;9.100;2023-12-20T11:19:34;6.82;;;1.70;;
14118;SDS011;7138;49.246;9.100;2023-12-20T11:22:03;5.13;;;1.58;;
14118;SDS011;7138;49.246;9.100;2023-12-20T11:24:32;6.28;;;1.17;;
14118;SDS011;7138;49.246;9.100;2023-12-20T11:26:59;8.73;;;1.73;;
14118;SDS011;7138;49.246;9.100;2023-12-20T11:29:29;6.38;;;1.90;;
14118;SDS011;7138;49.246;9.100;2023-12-20T11:31:57;6.68;;;1.67;;
14118;SDS011;7138;49.246;9.100;2023-12-20T11:34:26;3.95;;;1.25;;
14118;SDS011;7138;49.246;9.100;2023-12-20T11:36:56;6.75;;;1.45;;
14118;SDS011;7138;49.246;9.100;2023-12-20T11:39:24;5.45;;;1.55;;
14118;SDS011;7138;49.246;9.100;2023-12-20T11:41:55;5.70;;;1.55;;
14118;SDS011;7138;49.246;9.100;2023-12-20T11:44:22;7.93;;;1.77;;
14118;SDS011;7138;49.246;9.100;2023-12-20T11:46:50;8.38;;;1.73;;
14118;SDS011;7138;49.246;9.100;2023-12-20T11:49:16;4.95;;;1.33;;
14118;SDS011;7138;49.246;9.100;2023-12-20T11:51:41;7.45;;;1.73;;
14118;SDS011;7138;49.246;9.100;2023-12-20T11:54:08;7.88;;;1.90;;
14118;SDS011;7138;49.246;9.100;2023-12-20T11:56:35;8.27;;;1.90;;
14118;SDS011;7138;49.246;9.100;2023-12-20T11:59:03;4.72;;;1.50;;
14118;SDS011;7138;49.246;9.100;2023-12-20T12:01:29;8.00;;;2.15;;
14118;SDS011;7138;49.246;9.100;2023-12-20T12:04:02;7.25;;;2.30;;
14118;SDS011;7138;49.246;9.100;2023-12-20T12:06:28;5.00;;;1.50;;
14118;SDS011;7138;49.246;9.100;2023-12-20T12:08:54;7.30;;;2.00;;
14118;SDS011;7138;49.246;9.100;2023-12-20T12:11:20;5.80;;;1.95;;
14118;SDS011;7138;49.246;9.100;2023-12-20T12:13:46;8.02;;;1.98;;
14118;SDS011;7138;49.246;9.100;2023-12-20T12:16:16;9.13;;;1.95;;
14118;SDS011;7138;49.246;9.100;2023-12-20T12:18:42;9.50;;;2.13;;
14118;SDS011;7138;49.246;9.100;2023-12-20T12:21:08;7.30;;;2.17;;
14118;SDS011;7138;49.246;9.100;2023-12-20T12:23:34;4.75;;;2.40;;
14118;SDS011;7138;49.246;9.100;2023-12-20T12:26:03;4.88;;;2.15;;
14118;SDS011;7138;49.246;9.100;2023-12-20T12:28:29;7.82;;;2.38;;
14118;SDS011;7138;49.246;9.100;2023-12-20T12:30:57;7.50;;;2.15;;
14118;SDS011;7138;49.246;9.100;2023-12-20T12:33:25;7.35;;;2.40;;
14118;SDS011;7138;49.246;9.100;2023-12-20T12:35:51;8.50;;;2.58;;
14118;SDS011;7138;49.246;9.100;2023-12-20T12:38:19;8.00;;;2.88;;
14118;SDS011;7138;49.246;9.100;2023-12-20T12:40:45;5.95;;;2.38;;
14118;SDS011;7138;49.246;9.100;2023-12-20T12:43:12;9.25;;;3.03;;
14118;SDS011;7138;49.246;9.100;2023-12-20T12:45:38;7.78;;;2.50;;
14118;SDS011;7138;49.246;9.100;2023-12-20T12:48:04;7.97;;;2.30;;
14118;SDS011;7138;49.246;9.100;2023-12-20T12:50:33;8.63;;;2.13;;
14118;SDS011;7138;49.246;9.100;2023-12-20T12:52:59;7.60;;;1.98;;
14118;SDS011;7138;49.246;9.100;2023-12-20T12:55:25;8.07;;;2.33;;
14118;SDS011;7138;49.246;9.100;2023-12-20T12:57:50;8.23;;;2.00;;
14118;SDS011;7138;49.246;9.100;2023-12-20T13:00:16;6.78;;;2.38;;
14118;SDS011;7138;49.246;9.100;2023-12-20T13:02:44;7.78;;;2.60;;
14118;SDS011;7138;49.246;9.100;2023-12-20T13:05:10;6.30;;;1.98;;
14118;SDS011;7138;49.246;9.100;2023-12-20T13:07:37;7.13;;;2.00;;
14118;SDS011;7138;49.246;9.100;2023-12-20T13:10:04;8.23;;;2.28;;
14118;SDS011;7138;49.246;9.100;2023-12-20T13:12:31;6.57;;;1.92;;
14118;SDS011;7138;49.246;9.100;2023-12-20T13:14:57;9.73;;;2.53;;
14118;SDS011;7138;49.246;9.100;2023-12-20T13:17:23;7.80;;;2.50;;
14118;SDS011;7138;49.246;9.100;2023-12-20T13:19:49;9.38;;;2.38;;
14118;SDS011;7138;49.246;9.100;2023-12-20T13:22:14;6.70;;;2.40;;
14118;SDS011;7138;49.246;9.100;2023-12-20T13:24:42;7.97;;;2.45;;
14118;SDS011;7138;49.246;9.100;2023-12-20T13:27:09;6.90;;;2.35;;
14118;SDS011;7138;49.246;9.100;2023-12-20T13:29:35;9.43;;;2.78;;
14118;SDS011;7138;49.246;9.100;2023-12-20T13:32:01;9.75;;;2.13;;
14118;SDS011;7138;49.246;9.100;2023-12-20T13:34:28;7.88;;;2.15;;
14118;SDS011;7138;49.246;9.100;2023-12-20T13:36:54;7.53;;;2.45;;
14118;SDS011;7138;49.246;9.100;2023-12-20T13:39:21;8.18;;;2.42;;
14118;SDS011;7138;49.246;9.100;2023-12-20T13:41:48;8.18;;;2.53;;
14118;SDS011;7138;49.246;9.100;2023-12-20T13:44:14;6.47;;;2.50;;
14118;SDS011;7138;49.246;9.100;2023-12-20T13:46:40;7.47;;;2.20;;
14118;SDS011;7138;49.246;9.100;2023-12-20T13:49:07;8.95;;;2.60;;
14118;SDS011;7138;49.246;9.100;2023-12-20T13:51:32;10.27;;;2.78;;
14118;SDS011;7138;49.246;9.100;2023-12-20T13:53:58;7.72;;;2.33;;
14118;SDS011;7138;49.246;9.100;2023-12-20T13:56:24;7.30;;;2.22;;
14118;SDS011;7138;49.246;9.100;2023-12-20T13:58:52;7.75;;;2.20;;
14118;SDS011;7138;49.246;9.100;2023-12-20T14:01:17;7.85;;;2.40;;
14118;SDS011;7138;49.246;9.100;2023-12-20T14:03:43;11.18;;;2.35;;
14118;SDS011;7138;49.246;9.100;2023-12-20T14:06:09;7.40;;;2.13;;
14118;SDS011;7138;49.246;9.100;2023-12-20T14:08:35;7.07;;;2.75;;
14118;SDS011;7138;49.246;9.100;2023-12-20T14:11:01;12.88;;;2.90;;
14118;SDS011;7138;49.246;9.100;2023-12-20T14:13:27;8.93;;;2.60;;
14118;SDS011;7138;49.246;9.100;2023-12-20T14:15:54;7.30;;;2.88;;
14118;SDS011;7138;49.246;9.100;2023-12-20T14:18:20;8.73;;;2.85;;
14118;SDS011;7138;49.246;9.100;2023-12-20T14:20:46;7.47;;;2.30;;
14118;SDS011;7138;49.246;9.100;2023-12-20T14:23:13;10.15;;;3.22;;
14118;SDS011;7138;49.246;9.100;2023-12-20T14:25:41;11.02;;;2.90;;
14118;SDS011;7138;49.246;9.100;2023-12-20T14:28:07;12.40;;;2.97;;
14118;SDS011;7138;49.246;9.100;2023-12-20T14:30:35;11.63;;;3.53;;
14118;SDS011;7138;49.246;9.100;2023-12-20T14:33:03;8.10;;;2.58;;
14118;SDS011;7138;49.246;9.100;2023-12-20T14:35:29;9.50;;;2.53;;
14118;SDS011;7138;49.246;9.100;2023-12-20T14:37:55;8.93;;;2.47;;
14118;SDS011;7138;49.246;9.100;2023-12-20T14:40:21;9.65;;;2.88;;
14118;SDS011;7138;49.246;9.100;2023-12-20T14:42:47;10.35;;;2.70;;
14118;SDS011;7138;49.246;9.100;2023-12-20T14:45:14;9.30;;;2.72;;
14118;SDS011;7138;49.246;9.100;2023-12-20T14:47:41;10.95;;;2.83;;
14118;SDS011;7138;49.246;9.100;2023-12-20T14:50:09;9.77;;;2.70;;
14118;SDS011;7138;49.246;9.100;2023-12-20T14:52:37;9.93;;;2.55;;
14118;SDS011;7138;49.246;9.100;2023-12-20T14:55:03;9.32;;;2.20;;
14118;SDS011;7138;49.246;9.100;2023-12-20T14:57:29;10.75;;;2.22;;